MDT,Max TemperatureF,Mean TemperatureF,Min TemperatureF,Max Dew PointF,MeanDew PointF,Min DewpointF,Max Humidity, Mean Humidity, Min Humidity, Max Sea Level PressureIn, Mean Sea Level PressureIn, Min Sea Level PressureIn, Max VisibilityMiles, Mean VisibilityMiles, Min VisibilityMiles, Max Wind SpeedMPH, Mean Wind SpeedMPH, Max Gust SpeedMPH,PrecipitationIn, CloudCover, Events, WindDirDegrees
2011-9-1,68,55,42,38,33,25,70,45,20,30.09,30.01,29.88,10,10,10,16,6,22,0.00,0,,329
2011-9-2,72,54,35,35,31,25,82,50,18,30.12,30.09,30.06,10,10,10,14,4,21,0.00,0,,318
2011-9-3,75,55,35,33,26,9,76,43,9,30.16,30.11,30.06,10,10,10,7,5,9,0.00,0,,347
2011-9-4,79,57,35,38,30,26,70,43,15,30.14,30.06,29.98,10,10,10,10,2,15,0.00,0,,206
2011-9-5,85,61,37,38,31,22,82,46,10,30.03,29.98,29.94,10,10,10,12,3,17,0.00,0,,10
2011-9-6,84,66,48,40,35,28,71,43,14,30.23,30.10,30.01,10,10,10,25,4,32,T,0,Thunderstorm,332
2011-9-7,84,65,45,41,36,28,65,40,15,30.25,30.20,30.17,10,10,10,15,2,18,0.00,0,,335
2011-9-8,84,64,43,40,32,24,70,41,12,30.27,30.19,30.13,10,10,9,14,3,20,0.00,0,,11
2011-9-9,83,63,43,39,33,24,65,39,13,30.20,30.11,30.02,10,10,10,16,4,20,0.00,0,,356
2011-9-10,86,66,45,40,34,23,71,41,10,30.07,30.00,29.93,10,10,10,32,4,49,T,0,,339
2011-9-11,85,65,45,42,38,31,66,41,15,30.02,29.98,29.94,10,10,10,22,3,30,0.00,0,,41
2011-9-12,81,63,45,45,40,35,80,50,20,30.21,30.08,30.02,10,10,7,29,3,46,T,1,Rain,64
2011-9-13,81,63,44,47,41,31,89,53,16,30.17,30.09,30.03,10,10,10,15,2,20,0.00,0,,241
2011-9-14,80,61,42,43,34,26,76,46,15,30.04,29.95,29.86,10,10,10,12,3,15,T,0,,324
2011-9-15,73,61,49,52,45,34,93,64,34,29.93,29.85,29.72,10,8,1,23,4,30,0.43,6,Rain-Thunderstorm,136
2011-9-16,62,51,40,52,44,30,96,64,32,29.96,29.90,29.82,10,10,9,17,4,22,T,4,Rain,228
2011-9-17,61,46,31,40,33,27,96,62,28,30.14,30.06,29.95,10,8,0,13,3,20,0.00,2,Fog,146
2011-9-18,66,55,44,41,37,34,82,57,32,30.22,30.17,30.12,10,10,10,9,3,13,T,6,,142
2011-9-19,70,56,41,42,38,35,89,59,28,30.16,30.12,30.07,10,10,10,15,5,23,0.00,1,,318
2011-9-20,72,54,36,40,33,25,89,54,18,30.17,30.13,30.09,10,10,10,10,2,14,0.00,0,,291
2011-9-21,77,56,35,39,33,25,82,48,14,30.18,30.13,30.07,10,10,10,12,2,15,0.00,0,,304
2011-9-22,79,58,37,40,33,29,82,49,16,30.21,30.15,30.12,10,10,10,14,3,16,0.00,0,,125
2011-9-23,83,61,38,40,32,13,85,46,7,30.31,30.18,30.10,10,10,2,15,3,18,0.00,0,,156
2011-9-24,85,63,40,36,29,20,65,38,10,30.10,29.97,29.81,10,10,10,16,3,21,0.00,0,,174
2011-9-25,74,59,44,41,36,32,68,47,25,29.93,29.84,29.77,10,10,10,22,7,28,T,4,,207
2011-9-26,68,52,36,41,37,34,92,61,29,30.11,30.06,29.93,10,10,10,15,3,20,0.00,0,,168
2011-9-27,75,56,37,44,37,33,92,60,27,30.15,30.10,30.06,10,10,10,18,4,25,0.00,0,,177
2011-9-28,69,55,41,44,39,29,89,57,24,30.22,30.17,30.09,10,10,10,9,3,16,0.00,0,,301
2011-9-29,80,57,33,39,34,25,82,48,13,30.22,30.12,30.04,10,10,10,12,2,16,0.00,0,,240
2011-9-30,82,61,40,42,37,32,86,52,17,30.07,29.96,29.86,10,10,10,14,2,17,0.00,0,,166